createdAt,value
2018-01-30T00:01:54.171Z,4.40
2018-01-30T00:04:21.768Z,4.03
2018-01-30T00:06:49.678Z,3.37
2018-01-30T00:09:17.259Z,3.57
2018-01-30T00:11:44.798Z,2.73
2018-01-30T00:14:12.363Z,3.47
2018-01-30T00:16:39.936Z,4.37
2018-01-30T00:19:07.491Z,3.50
2018-01-30T00:21:35.040Z,4.37
2018-01-30T00:24:02.672Z,3.33
2018-01-30T00:26:30.277Z,4.00
2018-01-30T00:28:57.837Z,3.07
2018-01-30T00:33:59.154Z,3.53
2018-01-30T00:36:26.769Z,3.70
2018-01-30T00:38:54.307Z,4.47
2018-01-30T00:41:21.853Z,4.23
2018-01-30T00:43:49.425Z,2.80
2018-01-30T00:46:16.939Z,3.10
2018-01-30T00:48:44.488Z,4.87
2018-01-30T00:51:12.432Z,3.97
2018-01-30T00:53:40.020Z,4.33
2018-01-30T00:56:07.581Z,3.53
2018-01-30T00:58:35.135Z,3.70
2018-01-30T01:01:02.737Z,5.00
2018-01-30T01:03:30.288Z,3.77
2018-01-30T01:05:57.837Z,3.77
2018-01-30T01:08:25.405Z,3.33
2018-01-30T01:10:52.923Z,3.40
2018-01-30T01:13:20.807Z,2.90
2018-01-30T01:15:48.378Z,3.00
2018-01-30T01:18:15.924Z,3.50
2018-01-30T01:20:43.515Z,3.30
2018-01-30T01:23:11.100Z,2.80
2018-01-30T01:25:38.671Z,4.13
2018-01-30T01:28:06.220Z,3.03
2018-01-30T01:30:33.750Z,3.57
2018-01-30T01:33:01.362Z,2.67
2018-01-30T01:35:29.034Z,4.27
2018-01-30T01:37:56.575Z,5.83
2018-01-30T01:40:24.171Z,3.20
2018-01-30T01:42:51.752Z,3.80
2018-01-30T01:45:19.259Z,3.80
2018-01-30T01:47:47.115Z,5.40
2018-01-30T01:50:14.657Z,4.03
2018-01-30T01:52:42.225Z,4.00
2018-01-30T01:55:09.864Z,4.23
2018-01-30T01:57:37.482Z,5.30
2018-01-30T02:00:05.028Z,5.60
2018-01-30T02:02:33.559Z,5.60
2018-01-30T02:05:01.143Z,4.30
2018-01-30T02:07:28.679Z,3.20
2018-01-30T02:09:56.190Z,5.40
2018-01-30T02:12:23.737Z,2.97
2018-01-30T02:14:51.275Z,3.50
2018-01-30T02:17:19.149Z,4.97
2018-01-30T02:19:46.702Z,4.13
2018-01-30T02:22:14.244Z,4.30
2018-01-30T02:24:41.811Z,3.73
2018-01-30T02:27:09.366Z,3.50
2018-01-30T02:29:36.946Z,3.30
2018-01-30T02:32:04.459Z,3.33
2018-01-30T02:34:32.035Z,3.57
2018-01-30T02:36:59.688Z,4.93
2018-01-30T02:39:27.212Z,3.40
2018-01-30T02:41:54.784Z,2.90
2018-01-30T02:44:22.385Z,2.80
2018-01-30T02:46:49.912Z,3.70
2018-01-30T02:49:17.649Z,4.40
2018-01-30T02:51:45.191Z,3.50
2018-01-30T02:54:12.747Z,3.17
2018-01-30T02:56:40.376Z,2.90
2018-01-30T02:59:07.911Z,2.90
2018-01-30T03:01:35.475Z,3.70
2018-01-30T03:04:03.024Z,3.10
2018-01-30T03:06:30.904Z,4.03
2018-01-30T03:08:58.474Z,4.67
2018-01-30T03:11:26.056Z,3.90
2018-01-30T03:13:53.647Z,4.17
2018-01-30T03:16:21.215Z,3.63
2018-01-30T03:18:48.745Z,3.77
2018-01-30T03:21:16.354Z,5.13
2018-01-30T03:23:43.877Z,3.90
2018-01-30T03:26:11.426Z,4.00
2018-01-30T03:28:39.054Z,4.27
2018-01-30T03:31:06.601Z,4.20
2018-01-30T03:33:34.129Z,4.67
2018-01-30T03:36:01.726Z,3.70
2018-01-30T03:38:29.263Z,4.13
2018-01-30T03:40:56.825Z,4.10
2018-01-30T03:43:24.418Z,4.10
2018-01-30T03:45:51.968Z,3.90
2018-01-30T03:48:19.540Z,3.73
2018-01-30T03:50:47.153Z,3.73
2018-01-30T03:53:14.722Z,3.33
2018-01-30T03:55:42.259Z,3.30
2018-01-30T03:58:09.809Z,3.67
2018-01-30T04:00:37.413Z,3.37
2018-01-30T04:03:05.037Z,3.50
2018-01-30T04:05:32.621Z,5.17
2018-01-30T04:08:00.143Z,4.10
2018-01-30T04:10:27.734Z,3.60
2018-01-30T04:12:55.274Z,3.20
2018-01-30T04:15:22.820Z,4.83
2018-01-30T04:17:50.716Z,4.30
2018-01-30T04:20:18.245Z,4.37
2018-01-30T04:22:45.779Z,4.97
2018-01-30T04:25:13.362Z,4.93
2018-01-30T04:27:40.983Z,4.47
2018-01-30T04:30:08.603Z,5.30
2018-01-30T04:32:36.152Z,3.73
2018-01-30T04:35:03.721Z,5.60
2018-01-30T04:37:31.317Z,5.73
2018-01-30T04:39:58.832Z,5.23
2018-01-30T04:42:26.413Z,6.70
2018-01-30T04:44:53.958Z,4.50
2018-01-30T04:47:21.512Z,5.37
2018-01-30T04:49:49.061Z,5.27
2018-01-30T04:52:16.626Z,5.83
2018-01-30T04:54:44.161Z,5.40
2018-01-30T04:57:11.733Z,7.13
2018-01-30T04:59:39.284Z,6.00
2018-01-30T05:02:06.846Z,6.47
2018-01-30T05:04:34.397Z,7.60
2018-01-30T05:07:01.939Z,7.17
2018-01-30T05:09:29.503Z,7.00
2018-01-30T05:11:57.108Z,7.60
2018-01-30T05:14:24.981Z,7.73
2018-01-30T05:16:52.492Z,7.90
2018-01-30T05:19:20.043Z,6.07
2018-01-30T05:21:47.593Z,6.93
2018-01-30T05:24:15.174Z,7.47
2018-01-30T05:26:42.713Z,9.23
2018-01-30T05:29:10.308Z,8.10
2018-01-30T05:31:37.882Z,8.70
2018-01-30T05:34:05.422Z,7.30
2018-01-30T05:36:32.986Z,11.30
2018-01-30T05:39:00.549Z,8.47
2018-01-30T05:41:28.114Z,9.40
2018-01-30T05:43:55.666Z,8.70
2018-01-30T05:46:23.263Z,10.33
2018-01-30T05:48:50.823Z,9.20
2018-01-30T05:51:18.373Z,8.10
2018-01-30T05:53:45.935Z,9.67
2018-01-30T05:56:13.479Z,10.90
2018-01-30T05:58:41.041Z,10.93
2018-01-30T06:01:08.597Z,10.20
2018-01-30T06:03:36.178Z,12.10
2018-01-30T06:06:03.716Z,11.57
2018-01-30T06:08:31.260Z,11.37
2018-01-30T06:10:58.825Z,11.30
2018-01-30T06:13:26.381Z,10.30
2018-01-30T06:15:53.942Z,10.50
2018-01-30T06:18:21.497Z,11.20
2018-01-30T06:20:49.058Z,13.30
2018-01-30T06:23:16.604Z,10.90
2018-01-30T06:25:44.519Z,11.53
2018-01-30T06:28:12.101Z,13.40
2018-01-30T06:30:39.624Z,12.23
2018-01-30T06:33:07.209Z,11.63
2018-01-30T06:35:34.739Z,13.40
2018-01-30T06:38:02.690Z,14.47
2018-01-30T06:40:30.325Z,15.97
2018-01-30T06:42:57.852Z,15.00
2018-01-30T06:45:25.416Z,17.03
2018-01-30T06:47:53.013Z,12.93
2018-01-30T06:50:20.568Z,15.97
2018-01-30T06:52:48.083Z,16.57
2018-01-30T06:55:15.646Z,17.07
2018-01-30T06:57:43.225Z,16.83
2018-01-30T07:00:10.851Z,16.60
2018-01-30T07:02:38.419Z,17.90
2018-01-30T07:05:05.983Z,18.00
2018-01-30T07:07:33.614Z,17.33
2018-01-30T07:10:01.164Z,18.07
2018-01-30T07:12:28.700Z,18.67
2018-01-30T07:14:56.299Z,18.20
2018-01-30T07:17:23.885Z,17.97
2018-01-30T07:19:51.421Z,18.97
2018-01-30T07:22:19.015Z,19.40
2018-01-30T07:24:46.565Z,18.27
2018-01-30T07:27:14.080Z,18.30
2018-01-30T07:29:41.660Z,18.60
2018-01-30T07:32:09.222Z,16.80
2018-01-30T07:34:36.804Z,17.60
2018-01-30T07:37:04.379Z,18.57
2018-01-30T07:39:31.924Z,18.80
2018-01-30T07:41:59.492Z,19.00
2018-01-30T07:44:27.323Z,18.43
2018-01-30T07:46:55.006Z,16.80
2018-01-30T07:49:22.565Z,17.27
2018-01-30T07:51:50.183Z,15.73
2018-01-30T07:54:17.826Z,14.87
2018-01-30T07:56:45.356Z,14.03
2018-01-30T07:59:12.929Z,15.90
2018-01-30T08:01:40.537Z,16.00
2018-01-30T08:04:08.083Z,16.47
2018-01-30T08:06:35.696Z,18.90
2018-01-30T08:09:03.311Z,16.50
2018-01-30T08:11:30.864Z,16.80
2018-01-30T08:13:58.422Z,15.80
2018-01-30T08:16:25.940Z,16.77
2018-01-30T08:18:53.485Z,16.47
2018-01-30T08:21:21.022Z,16.70
2018-01-30T08:23:48.601Z,15.87
2018-01-30T08:26:16.151Z,15.93
2018-01-30T08:28:43.671Z,15.33
2018-01-30T08:31:11.250Z,15.67
2018-01-30T08:33:38.768Z,14.23
2018-01-30T08:36:06.335Z,14.67
2018-01-30T08:38:34.269Z,14.60
2018-01-30T08:41:01.826Z,13.70
2018-01-30T08:43:29.373Z,14.77
2018-01-30T08:45:57.287Z,13.37
2018-01-30T08:48:24.878Z,14.50
2018-01-30T08:50:52.425Z,14.03
2018-01-30T08:53:20.052Z,14.43
2018-01-30T08:55:47.606Z,13.97
2018-01-30T08:58:15.248Z,13.77
2018-01-30T09:00:42.820Z,14.27
2018-01-30T09:03:10.375Z,13.37
2018-01-30T09:05:37.962Z,12.90
2018-01-30T09:08:05.512Z,15.10
2018-01-30T09:10:33.044Z,11.40
2018-01-30T09:13:00.680Z,13.47
2018-01-30T09:15:28.540Z,12.73
2018-01-30T09:17:56.064Z,12.23
2018-01-30T09:20:23.584Z,11.23
2018-01-30T09:22:51.124Z,12.57
2018-01-30T09:25:18.686Z,11.80
2018-01-30T09:27:46.291Z,11.90
2018-01-30T09:30:13.809Z,9.40
2018-01-30T09:32:41.398Z,10.73
2018-01-30T09:35:08.947Z,10.77
2018-01-30T09:37:36.720Z,11.63
2018-01-30T09:40:04.306Z,9.90
2018-01-30T09:42:31.890Z,10.93
2018-01-30T09:44:59.436Z,10.33
2018-01-30T09:47:26.995Z,9.27
2018-01-30T09:49:54.572Z,11.37
2018-01-30T09:52:22.092Z,9.70
2018-01-30T09:54:49.654Z,11.60
2018-01-30T09:57:17.223Z,10.80
2018-01-30T09:59:44.777Z,10.00
2018-01-30T10:02:12.356Z,11.13
2018-01-30T10:04:39.911Z,10.77
2018-01-30T10:07:07.470Z,10.20
2018-01-30T10:09:35.043Z,13.23
2018-01-30T10:12:02.567Z,13.53
2018-01-30T10:14:30.138Z,12.00
2018-01-30T10:16:57.680Z,12.80
2018-01-30T10:19:25.255Z,12.93
2018-01-30T10:21:52.806Z,13.17
2018-01-30T10:24:20.351Z,11.83
2018-01-30T10:26:47.934Z,12.60
2018-01-30T10:29:15.565Z,12.77
2018-01-30T10:31:43.079Z,12.40
2018-01-30T10:34:10.628Z,12.80
2018-01-30T10:36:38.217Z,14.30
2018-01-30T10:39:05.777Z,12.70
2018-01-30T10:41:33.407Z,12.47
2018-01-30T10:44:01.949Z,12.50
2018-01-30T10:46:29.490Z,12.77
2018-01-30T10:48:57.055Z,12.00
2018-01-30T10:51:24.601Z,13.67
2018-01-30T10:53:52.175Z,12.37
2018-01-30T10:56:19.722Z,14.50
2018-01-30T10:58:47.319Z,12.73
2018-01-30T11:01:14.898Z,13.40
2018-01-30T11:03:42.434Z,15.37
2018-01-30T11:06:10.004Z,15.50
2018-01-30T11:08:37.525Z,13.80
2018-01-30T11:11:05.091Z,14.20
2018-01-30T11:13:32.765Z,13.77
2018-01-30T11:16:00.331Z,14.63
2018-01-30T11:18:27.854Z,13.27
2018-01-30T11:20:55.401Z,12.93
2018-01-30T11:23:23.056Z,13.87
2018-01-30T11:25:50.612Z,14.57
2018-01-30T11:28:18.146Z,12.90
2018-01-30T11:30:45.719Z,13.57
2018-01-30T11:33:13.338Z,16.60
2018-01-30T11:35:41.046Z,12.90
2018-01-30T11:38:08.594Z,10.77
2018-01-30T11:40:36.164Z,11.50
2018-01-30T11:43:03.687Z,12.50
2018-01-30T11:45:31.548Z,12.53
2018-01-30T11:47:59.106Z,13.03
2018-01-30T11:50:26.633Z,12.07
2018-01-30T11:52:54.205Z,10.23
2018-01-30T11:55:21.757Z,10.77
2018-01-30T11:57:49.617Z,10.60
2018-01-30T12:00:17.181Z,10.87
2018-01-30T12:02:44.757Z,10.57
2018-01-30T12:05:12.395Z,10.17
2018-01-30T12:07:39.935Z,8.80
2018-01-30T12:10:07.499Z,9.03
2018-01-30T12:12:35.064Z,8.80
2018-01-30T12:15:02.586Z,9.87
2018-01-30T12:17:30.185Z,9.40
2018-01-30T12:19:57.727Z,9.50
2018-01-30T12:22:25.263Z,9.30
2018-01-30T12:24:52.842Z,9.50
2018-01-30T12:27:20.475Z,8.90
2018-01-30T12:29:48.046Z,8.03
2018-01-30T12:32:15.565Z,9.07
2018-01-30T12:34:43.169Z,8.13
2018-01-30T12:37:10.721Z,8.87
2018-01-30T12:39:38.330Z,9.10
2018-01-30T12:42:05.872Z,7.97
2018-01-30T12:44:33.430Z,7.73
2018-01-30T12:47:01.014Z,8.50
2018-01-30T12:49:28.561Z,6.63
2018-01-30T12:51:56.136Z,6.90
2018-01-30T12:54:23.680Z,6.93
2018-01-30T12:56:51.234Z,6.93
2018-01-30T12:59:19.170Z,5.87
2018-01-30T13:01:46.722Z,6.00
2018-01-30T13:04:14.292Z,6.30
2018-01-30T13:06:41.877Z,6.90
2018-01-30T13:09:09.438Z,7.17
2018-01-30T13:11:36.991Z,6.70
2018-01-30T13:14:04.542Z,5.83
2018-01-30T13:16:32.118Z,6.67
2018-01-30T13:18:59.665Z,5.40
2018-01-30T13:21:27.237Z,5.47
2018-01-30T13:23:54.812Z,7.73
2018-01-30T13:26:22.514Z,6.70
2018-01-30T13:28:50.068Z,5.73
2018-01-30T13:31:17.580Z,6.53
2018-01-30T13:33:45.113Z,6.60
2018-01-30T13:36:12.628Z,6.33
2018-01-30T13:38:40.164Z,5.67
2018-01-30T13:41:07.690Z,5.90
2018-01-30T13:43:36.061Z,5.83
2018-01-30T13:46:03.630Z,5.50
2018-01-30T13:48:31.157Z,6.40
2018-01-30T13:50:58.748Z,6.17
2018-01-30T13:53:26.292Z,5.73
2018-01-30T13:55:53.827Z,5.70
2018-01-30T13:58:21.750Z,5.53
2018-01-30T14:00:49.302Z,6.97
2018-01-30T14:03:16.815Z,4.90
2018-01-30T14:05:44.366Z,5.17
2018-01-30T14:08:11.922Z,6.23
2018-01-30T14:10:39.494Z,5.50
2018-01-30T14:13:07.229Z,5.33
2018-01-30T14:15:34.789Z,5.03
2018-01-30T14:18:02.342Z,5.50
2018-01-30T14:20:29.958Z,5.47
2018-01-30T14:22:57.472Z,5.80
2018-01-30T14:25:25.001Z,4.77
2018-01-30T14:27:52.549Z,6.40
2018-01-30T14:30:20.152Z,7.00
2018-01-30T14:32:48.080Z,6.20
2018-01-30T14:35:16.502Z,4.87
2018-01-30T14:37:44.109Z,5.10
2018-01-30T14:40:11.647Z,5.43
2018-01-30T14:42:39.207Z,5.47
2018-01-30T14:45:06.812Z,5.80
2018-01-30T14:47:34.355Z,5.23
2018-01-30T14:50:01.897Z,5.60
2018-01-30T14:52:29.468Z,5.00
2018-01-30T14:54:57.025Z,5.30
2018-01-30T14:57:24.578Z,5.50
2018-01-30T14:59:52.485Z,4.73
2018-01-30T15:02:20.024Z,5.43
2018-01-30T15:04:47.527Z,3.63
2018-01-30T15:07:15.085Z,3.70
2018-01-30T15:09:42.604Z,3.70
2018-01-30T15:12:10.160Z,4.27
2018-01-30T15:14:37.700Z,4.90
2018-01-30T15:17:05.237Z,4.20
2018-01-30T15:19:33.170Z,5.23
2018-01-30T15:22:00.742Z,6.70
2018-01-30T15:24:28.266Z,6.00
2018-01-30T15:26:55.847Z,7.83
2018-01-30T15:29:23.370Z,8.20
2018-01-30T15:31:50.898Z,6.60
2018-01-30T15:34:18.445Z,7.13
2018-01-30T15:36:45.982Z,8.33
2018-01-30T15:39:13.538Z,8.40
2018-01-30T15:41:41.086Z,8.27
2018-01-30T15:44:08.671Z,8.10
2018-01-30T15:46:36.349Z,8.70
2018-01-30T15:49:03.906Z,8.87
2018-01-30T15:51:31.495Z,8.10
2018-01-30T15:53:59.013Z,8.13
2018-01-30T15:56:26.543Z,9.63
2018-01-30T15:58:54.083Z,8.83
2018-01-30T16:01:22.015Z,8.40
2018-01-30T16:03:49.546Z,9.70
2018-01-30T16:06:17.065Z,9.20
2018-01-30T16:08:44.654Z,7.40
2018-01-30T16:11:12.181Z,7.23
2018-01-30T16:13:39.749Z,8.47
2018-01-30T16:16:07.326Z,7.90
2018-01-30T16:18:34.999Z,11.90
2018-01-30T16:21:02.614Z,8.57
2018-01-30T16:23:30.126Z,12.23
2018-01-30T16:25:57.690Z,95.77
2018-01-30T16:28:25.314Z,9.83
2018-01-30T16:30:52.875Z,14.33
2018-01-30T16:33:20.405Z,13.03
2018-01-30T16:35:47.943Z,9.57
2018-01-30T16:38:15.526Z,8.30
2018-01-30T16:40:43.079Z,9.60
2018-01-30T16:43:10.614Z,16.33
2018-01-30T16:45:38.543Z,12.50
2018-01-30T16:48:06.093Z,35.90
2018-01-30T16:50:33.696Z,11.37
2018-01-30T16:53:01.254Z,9.43
2018-01-30T16:55:28.884Z,7.97
2018-01-30T16:57:56.818Z,9.50
2018-01-30T17:00:24.361Z,8.00
2018-01-30T17:02:51.878Z,7.53
2018-01-30T17:05:19.424Z,10.40
2018-01-30T17:07:46.999Z,11.93
2018-01-30T17:10:14.536Z,9.80
2018-01-30T17:12:42.080Z,9.77
2018-01-30T17:15:09.630Z,10.50
2018-01-30T17:17:37.214Z,10.23
2018-01-30T17:20:04.936Z,10.37
2018-01-30T17:22:32.483Z,11.07
2018-01-30T17:25:00.099Z,11.13
2018-01-30T17:27:27.685Z,13.17
2018-01-30T17:29:55.225Z,17.07
2018-01-30T17:32:22.774Z,15.67
2018-01-30T17:34:50.330Z,13.70
2018-01-30T17:37:18.207Z,14.50
2018-01-30T17:39:45.737Z,15.40
2018-01-30T17:42:13.279Z,15.77
2018-01-30T17:44:41.121Z,16.60
2018-01-30T17:47:08.655Z,15.67
2018-01-30T17:49:36.196Z,16.63
2018-01-30T17:52:03.787Z,16.93
2018-01-30T17:54:31.338Z,18.60
2018-01-30T17:56:58.859Z,17.70
2018-01-30T17:59:26.396Z,18.93
2018-01-30T18:01:53.961Z,19.10
2018-01-30T18:04:21.545Z,20.00
2018-01-30T18:06:49.080Z,21.53
2018-01-30T18:09:16.641Z,19.43
2018-01-30T18:11:44.224Z,19.40
2018-01-30T18:14:11.788Z,19.87
2018-01-30T18:16:39.303Z,20.07
2018-01-30T18:19:06.852Z,19.57
2018-01-30T18:21:34.412Z,19.27
2018-01-30T18:24:02.015Z,19.80
2018-01-30T18:26:29.573Z,20.57
2018-01-30T18:28:57.093Z,19.93
2018-01-30T18:31:24.636Z,22.97
2018-01-30T18:33:52.142Z,20.33
2018-01-30T18:36:19.712Z,22.53
2018-01-30T18:38:47.229Z,22.97
2018-01-30T18:41:14.764Z,21.20
2018-01-30T18:43:42.299Z,21.77
2018-01-30T18:46:09.878Z,20.70
2018-01-30T18:48:37.423Z,21.90
2018-01-30T18:51:04.968Z,23.53
2018-01-30T18:53:32.591Z,24.50
2018-01-30T18:56:00.132Z,25.60
2018-01-30T18:58:27.703Z,22.93
2018-01-30T19:00:55.280Z,25.87
2018-01-30T19:03:22.870Z,25.47
2018-01-30T19:05:50.491Z,26.20
2018-01-30T19:08:18.099Z,47.60
2018-01-30T19:10:45.620Z,33.03
2018-01-30T19:13:13.182Z,32.00
2018-01-30T19:15:40.755Z,31.57
2018-01-30T19:18:08.331Z,32.70
2018-01-30T19:20:35.905Z,34.13
2018-01-30T19:23:03.808Z,34.60
2018-01-30T19:25:31.350Z,34.80
2018-01-30T19:27:58.899Z,35.63
2018-01-30T19:30:26.527Z,34.77
2018-01-30T19:32:54.086Z,32.57
2018-01-30T19:35:21.649Z,35.33
2018-01-30T19:37:49.192Z,39.57
2018-01-30T19:40:16.781Z,33.83
2018-01-30T19:42:44.320Z,37.13
2018-01-30T19:45:11.872Z,42.67
2018-01-30T19:47:39.587Z,35.43
2018-01-30T19:50:07.177Z,36.60
2018-01-30T19:52:34.713Z,35.97
2018-01-30T19:55:02.265Z,36.10
2018-01-30T19:57:29.816Z,39.07
2018-01-30T19:59:57.398Z,37.00
2018-01-30T20:02:25.015Z,35.90
2018-01-30T20:04:52.544Z,37.93
2018-01-30T20:07:20.158Z,39.00
2018-01-30T20:09:47.733Z,34.40
2018-01-30T20:12:15.273Z,38.77
2018-01-30T20:14:42.882Z,39.97
2018-01-30T20:17:10.514Z,39.50
2018-01-30T20:19:38.143Z,40.70
2018-01-30T20:22:05.771Z,42.30
2018-01-30T20:24:33.342Z,45.53
2018-01-30T20:27:00.906Z,42.90
2018-01-30T20:29:28.693Z,43.23
2018-01-30T20:31:56.280Z,41.97
2018-01-30T20:34:23.837Z,43.63
2018-01-30T20:36:51.432Z,43.77
2018-01-30T20:39:18.978Z,43.50
2018-01-30T20:41:46.560Z,46.00
2018-01-30T20:44:14.076Z,44.20
2018-01-30T20:46:41.610Z,45.03
2018-01-30T20:49:09.213Z,45.67
2018-01-30T20:51:36.753Z,43.30
2018-01-30T20:54:04.412Z,45.13
2018-01-30T20:56:31.983Z,45.50
2018-01-30T20:58:59.513Z,45.80
2018-01-30T21:01:27.144Z,47.60
2018-01-30T21:03:54.718Z,46.40
2018-01-30T21:06:22.300Z,46.60
2018-01-30T21:08:49.823Z,46.23
2018-01-30T21:11:17.351Z,47.40
2018-01-30T21:13:47.827Z,47.50
2018-01-30T21:16:15.447Z,48.50
2018-01-30T21:18:43.059Z,48.93
2018-01-30T21:21:10.590Z,48.63
2018-01-30T21:23:38.139Z,47.70
2018-01-30T21:26:05.731Z,46.20
2018-01-30T21:28:33.299Z,46.93
2018-01-30T21:31:00.845Z,44.27
2018-01-30T21:33:28.473Z,46.53
2018-01-30T21:35:56.042Z,46.47
2018-01-30T21:38:23.572Z,47.60
2018-01-30T21:40:51.133Z,45.57
2018-01-30T21:43:18.655Z,45.80
2018-01-30T21:45:46.275Z,42.07
2018-01-30T21:48:13.841Z,42.90
2018-01-30T21:50:41.367Z,43.13
2018-01-30T21:53:09.125Z,46.30
2018-01-30T21:55:36.660Z,48.80
2018-01-30T21:58:04.203Z,44.10
2018-01-30T22:00:32.149Z,47.90
2018-01-30T22:02:59.680Z,46.00
2018-01-30T22:05:27.385Z,45.60
2018-01-30T22:07:54.973Z,44.90
2018-01-30T22:10:22.819Z,46.57
2018-01-30T22:12:50.390Z,45.07
2018-01-30T22:15:18.243Z,43.63
2018-01-30T22:17:45.898Z,45.77
2018-01-30T22:20:13.474Z,40.10
2018-01-30T22:22:41.028Z,43.03
2018-01-30T22:25:08.567Z,48.80
2018-01-30T22:27:36.135Z,48.40
2018-01-30T22:30:03.671Z,47.33
2018-01-30T22:32:31.317Z,44.63
2018-01-30T22:34:59.030Z,45.00
2018-01-30T22:37:26.607Z,45.10
2018-01-30T22:39:54.168Z,42.47
2018-01-30T22:42:21.705Z,42.80
2018-01-30T22:44:49.316Z,42.60
